Time;durP1;ratioP1;P1;durP2;ratioP2;P2;SDS_P1;SDS_P2;PMS_P1;PMS_P2;Temp;Humidity;BMP_temperature;BMP_pressure;BME280_temperature;BME280_humidity;BME280_pressure;Samples;Min_cycle;Max_cycle;Signal;HPM_P1;HPM_P2
2023/04/17 00:00:17;;;;;;;7.10;2.30;;;;;;;6.20;55.34;100069.77;79439;1304;3018382;-61
2023/04/17 00:02:45;;;;;;;4.60;1.80;;;;;;;6.18;55.37;100071.60;79399;1297;3011508;-63
2023/04/17 00:05:15;;;;;;;3.10;1.50;;;;;;;6.09;55.79;100068.77;78237;1297;3052733;-62
2023/04/17 00:07:42;;;;;;;6.50;2.10;;;;;;;6.06;55.96;100071.11;79417;1294;3013653;-62
2023/04/17 00:10:09;;;;;;;4.10;1.90;;;;;;;6.05;55.91;100074.11;79428;1292;3013030;-62
2023/04/17 00:12:38;;;;;;;3.70;1.70;;;;;;;6.05;56.25;100071.84;78231;1296;3049991;-61
2023/04/17 00:15:05;;;;;;;11.60;2.20;;;;;;;6.03;56.44;100073.98;79505;1297;3013693;-60
2023/04/17 00:17:36;;;;;;;2.10;1.30;;;;;;;6.04;56.51;100078.29;78883;1296;3011513;-59
2023/04/17 00:20:11;;;;;;;5.50;2.10;;;;;;;5.97;56.94;100078.66;79398;1297;3014113;-61
2023/04/17 00:22:39;;;;;;;6.40;2.10;;;;;;;5.94;57.20;100076.35;78153;1296;3056965;-60
2023/04/17 00:25:09;;;;;;;3.40;1.80;;;;;;;5.92;57.08;100073.09;79343;1294;3012900;-60
2023/04/17 00:27:36;;;;;;;4.90;2.10;;;;;;;5.94;57.16;100078.95;79485;1296;3013212;-62
2023/04/17 00:30:05;;;;;;;4.40;1.80;;;;;;;5.90;57.04;100078.36;78225;1297;3051935;-64
2023/04/17 00:32:32;;;;;;;4.20;2.10;;;;;;;5.83;57.26;100074.42;79562;1296;3016140;-63
2023/04/17 00:34:59;;;;;;;4.10;1.80;;;;;;;5.82;57.29;100078.44;79446;1294;3011663;-63
2023/04/17 00:37:26;;;;;;;3.10;1.80;;;;;;;5.79;57.66;100072.80;78186;1297;3057271;-62
2023/04/17 00:39:53;;;;;;;6.90;2.40;;;;;;;5.74;57.73;100068.79;79455;1294;3018998;-63
2023/04/17 00:42:19;;;;;;;4.60;1.70;;;;;;;5.72;57.64;100068.83;79386;1294;3011907;-61
2023/04/17 00:44:49;;;;;;;4.80;2.30;;;;;;;5.72;57.68;100071.10;78099;1299;3052816;-62
2023/04/17 00:47:16;;;;;;;7.80;2.50;;;;;;;5.67;57.64;100069.52;79432;1296;3013519;-63
2023/04/17 00:49:43;;;;;;;4.70;2.10;;;;;;;5.66;57.79;100066.76;79400;1296;3011654;-63
2023/04/17 00:52:11;;;;;;;4.60;2.00;;;;;;;5.63;57.76;100069.11;78176;1296;3056728;-62
2023/04/17 00:54:38;;;;;;;5.50;1.70;;;;;;;5.53;58.50;100066.64;79228;1292;3013022;-62
2023/04/17 00:57:05;;;;;;;4.20;2.30;;;;;;;5.51;58.48;100062.52;79413;1300;3011921;-62
2023/04/17 00:59:33;;;;;;;6.80;2.20;;;;;;;5.49;58.73;100062.95;78234;1297;3050846;-65
2023/04/17 01:01:59;;;;;;;3.30;2.00;;;;;;;5.47;58.82;100061.26;79341;1299;3013315;-62
2023/04/17 01:04:26;;;;;;;5.70;2.10;;;;;;;5.43;58.86;100057.73;79234;1298;3013709;-61
2023/04/17 01:06:54;;;;;;;7.70;2.40;;;;;;;5.41;58.81;100061.96;78175;1297;3029228;-61
2023/04/17 01:09:21;;;;;;;4.90;2.10;;;;;;;5.33;59.26;100061.13;79455;1295;3013004;-63
2023/04/17 01:11:48;;;;;;;9.10;2.30;;;;;;;5.33;59.22;100063.93;79364;1293;3011883;-60
2023/04/17 01:14:16;;;;;;;3.60;1.80;;;;;;;5.28;59.61;100061.48;78072;1298;3026265;-62
2023/04/17 01:16:43;;;;;;;5.30;2.00;;;;;;;5.31;59.57;100065.40;79466;1297;3013547;-62
2023/04/17 01:19:09;;;;;;;4.70;2.00;;;;;;;5.25;59.98;100062.94;79394;1297;3011536;-63
2023/04/17 01:21:37;;;;;;;5.80;2.20;;;;;;;5.33;59.87;100060.45;77948;1294;3028802;-63
2023/04/17 01:24:05;;;;;;;5.30;2.20;;;;;;;5.28;59.94;100064.27;79283;1300;3019397;-62
2023/04/17 01:26:31;;;;;;;6.50;2.10;;;;;;;5.24;60.02;100061.08;79425;1294;3013168;-62
2023/04/17 01:29:00;;;;;;;3.60;2.40;;;;;;;5.17;60.22;100063.20;78118;1298;3026481;-63
2023/04/17 01:31:28;;;;;;;5.50;2.00;;;;;;;5.12;60.50;100057.95;79423;1297;3013093;-62
2023/04/17 01:33:54;;;;;;;4.80;2.30;;;;;;;5.23;59.90;100061.45;79342;1298;3011478;-62
2023/04/17 01:36:22;;;;;;;5.60;1.70;;;;;;;5.22;60.25;100061.66;78133;1298;3057189;-62
2023/04/17 01:38:49;;;;;;;7.20;2.50;;;;;;;5.10;60.45;100059.55;79514;1294;3013483;-62
2023/04/17 01:41:15;;;;;;;6.30;2.00;;;;;;;5.08;60.58;100064.65;79252;1307;3011750;-64
2023/04/17 01:43:45;;;;;;;5.20;2.30;;;;;;;5.11;60.52;100059.54;78191;1296;3028480;-62
2023/04/17 01:46:11;;;;;;;3.90;2.00;;;;;;;5.12;60.44;100062.45;79511;1296;3015727;-63
2023/04/17 01:48:38;;;;;;;3.90;2.10;;;;;;;5.02;60.90;100063.25;79277;1308;3011708;-64
2023/04/17 01:51:06;;;;;;;4.80;2.20;;;;;;;5.00;60.93;100064.70;78218;1300;3056230;-61
2023/04/17 01:53:36;;;;;;;4.00;1.90;;;;;;;5.02;60.89;100063.06;79507;1297;3013069;-61
2023/04/17 01:56:06;;;;;;;4.10;1.90;;;;;;;4.94;60.96;100065.04;78877;1298;3011793;-61
2023/04/17 01:58:32;;;;;;;5.70;2.00;;;;;;;4.92;61.11;100062.66;79401;1297;3016179;-63
2023/04/17 02:00:59;;;;;;;4.50;1.90;;;;;;;4.83;61.20;100059.62;79511;1298;3011829;-63
2023/04/17 02:03:27;;;;;;;3.00;2.00;;;;;;;4.92;60.78;100057.11;78348;1293;3068812;-64
2023/04/17 02:05:54;;;;;;;5.30;2.00;;;;;;;4.88;60.99;100058.44;79429;1297;3013465;-63
2023/04/17 02:08:21;;;;;;;4.30;2.00;;;;;;;4.92;60.83;100059.05;79578;1296;3013408;-64
2023/04/17 02:10:49;;;;;;;5.40;1.80;;;;;;;4.86;60.87;100060.57;78317;1297;3024827;-61
2023/04/17 02:13:17;;;;;;;3.40;1.60;;;;;;;4.88;60.98;100061.73;79605;1304;3013989;-64
2023/04/17 02:15:43;;;;;;;4.10;1.90;;;;;;;4.92;60.70;100061.61;79543;1296;3013231;-65
2023/04/17 02:18:11;;;;;;;7.30;1.40;;;;;;;4.84;60.95;100062.69;78324;1297;3068439;-59
2023/04/17 02:20:38;;;;;;;3.00;1.60;;;;;;;4.80;61.04;100061.78;79554;1292;3013566;-60
2023/04/17 02:23:05;;;;;;;3.30;1.50;;;;;;;4.78;61.20;100055.77;79381;1297;3011932;-61
2023/04/17 02:25:33;;;;;;;3.90;2.00;;;;;;;4.83;60.83;100054.91;78321;1296;3053247;-62
2023/04/17 02:28:00;;;;;;;4.80;2.10;;;;;;;4.83;60.28;100055.12;79430;1306;3013062;-63
2023/04/17 02:30:27;;;;;;;4.70;1.60;;;;;;;4.77;60.37;100055.79;79415;1297;3011637;-61
2023/04/17 02:32:56;;;;;;;4.70;1.90;;;;;;;4.75;59.77;100053.41;78346;1297;3069306;-61
2023/04/17 02:35:25;;;;;;;4.40;1.60;;;;;;;4.84;59.53;100056.12;79518;1296;3012824;-62
2023/04/17 02:37:54;;;;;;;5.70;1.90;;;;;;;4.89;59.47;100057.54;79025;1297;3011584;-64
2023/04/17 02:40:22;;;;;;;4.30;2.30;;;;;;;4.77;59.85;100055.29;79518;1292;3014901;-62
2023/04/17 02:42:53;;;;;;;3.60;1.80;;;;;;;4.85;59.35;100054.89;78913;1297;3013570;-62
2023/04/17 02:45:20;;;;;;;3.80;1.70;;;;;;;4.73;59.53;100055.37;79430;1308;3013750;-60
2023/04/17 02:47:47;;;;;;;5.90;1.70;;;;;;;4.70;59.48;100054.56;79420;1299;3013110;-63
2023/04/17 02:50:15;;;;;;;4.10;1.70;;;;;;;4.76;59.35;100052.33;78286;1294;3069804;-61
2023/04/17 02:53:03;;;;;;;4.00;1.60;;;;;;;4.85;59.11;100054.52;78237;1294;3052449;-63
2023/04/17 02:55:30;;;;;;;3.90;1.90;;;;;;;4.68;59.62;100062.44;79577;1292;3013084;-62
2023/04/17 02:57:57;;;;;;;4.00;1.60;;;;;;;4.74;59.54;100060.21;79396;1292;3012361;-63
2023/04/17 03:00:26;;;;;;;6.90;1.90;;;;;;;4.71;59.36;100058.04;78272;1298;3050010;-62
2023/04/17 03:02:52;;;;;;;3.20;1.60;;;;;;;4.79;59.13;100060.41;79647;1297;3013151;-61
2023/04/17 03:05:22;;;;;;;4.60;2.00;;;;;;;4.70;59.71;100058.40;79505;1297;3011603;-63
2023/04/17 03:07:50;;;;;;;5.50;1.80;;;;;;;4.71;59.76;100061.31;78350;1296;3051217;-60
2023/04/17 03:10:19;;;;;;;4.60;1.90;;;;;;;4.78;59.54;100063.41;79600;1294;3013031;-61
2023/04/17 03:12:45;;;;;;;3.90;1.90;;;;;;;4.77;59.68;100061.35;79475;1295;3011616;-59
2023/04/17 03:15:14;;;;;;;5.70;2.10;;;;;;;4.75;59.82;100061.56;78269;1296;3050864;-62
2023/04/17 03:17:40;;;;;;;4.10;1.60;;;;;;;4.71;59.99;100056.64;79512;1297;3013521;-62
2023/04/17 03:20:07;;;;;;;6.20;2.40;;;;;;;4.71;60.15;100054.73;79568;1296;3011639;-62
2023/04/17 03:22:36;;;;;;;3.50;2.00;;;;;;;4.71;60.07;100056.66;78368;1306;3050231;-61
2023/04/17 03:25:04;;;;;;;3.70;1.90;;;;;;;4.64;60.51;100059.43;79532;1297;3013721;-63
2023/04/17 03:27:38;;;;;;;;;;;;;;;4.59;60.46;100055.73;78290;1297;3054514;-60
2023/04/17 03:30:07;;;;;;;6.40;2.10;;;;;;;4.50;61.04;100057.88;79501;1307;3013167;-64
2023/04/17 03:32:34;;;;;;;2.40;1.60;;;;;;;4.57;60.99;100055.80;79396;1297;3013098;-61
2023/04/17 03:35:03;;;;;;;3.10;1.90;;;;;;;4.65;60.69;100052.11;78370;1295;3069166;-62
2023/04/17 03:37:31;;;;;;;5.30;2.00;;;;;;;4.60;60.57;100052.42;79495;1294;3013522;-61
2023/04/17 03:39:57;;;;;;;3.20;1.90;;;;;;;4.54;60.83;100053.98;79491;1293;3011942;-60
2023/04/17 03:42:26;;;;;;;3.90;1.90;;;;;;;4.58;60.74;100052.30;78301;1296;3053617;-61
2023/04/17 03:44:54;;;;;;;6.70;2.60;;;;;;;4.55;60.62;100057.93;79486;1304;3013609;-63
2023/04/17 03:47:21;;;;;;;7.30;2.10;;;;;;;4.63;60.47;100057.73;79514;1297;3011531;-60
2023/04/17 03:49:49;;;;;;;6.00;2.70;;;;;;;4.56;60.62;100054.80;78330;1296;3069255;-61
2023/04/17 03:52:17;;;;;;;2.50;1.40;;;;;;;4.55;60.39;100055.69;79632;1293;3013174;-61
2023/04/17 03:54:44;;;;;;;3.70;1.90;;;;;;;4.58;59.96;100054.89;79431;1292;3013056;-61
2023/04/17 03:57:14;;;;;;;3.20;1.90;;;;;;;4.57;60.21;100053.02;78298;1297;3052779;-61
2023/04/17 03:59:41;;;;;;;3.60;2.10;;;;;;;4.67;59.84;100050.33;79494;1296;3016031;-61
2023/04/17 04:02:08;;;;;;;3.70;2.00;;;;;;;4.75;59.63;100049.25;79461;1295;3011951;-60
2023/04/17 04:04:36;;;;;;;2.90;2.00;;;;;;;4.68;60.02;100050.31;75844;1297;3069641;-63
2023/04/17 04:07:11;;;;;;;2.40;1.30;;;;;;;4.70;59.64;100054.59;78984;1292;3011911;-62
2023/04/17 04:09:38;;;;;;;2.50;1.40;;;;;;;4.88;59.36;100058.77;79590;1292;3012956;-62
2023/04/17 04:12:05;;;;;;;9.20;1.80;;;;;;;4.90;59.39;100060.28;79528;1296;3013218;-62
2023/04/17 04:14:38;;;;;;;3.70;1.50;;;;;;;4.97;59.25;100068.80;78316;1294;3053355;-62
2023/04/17 04:17:06;;;;;;;3.80;2.10;;;;;;;4.95;58.84;100068.66;79649;1297;3013552;-61
2023/04/17 04:19:33;;;;;;;4.40;1.80;;;;;;;5.01;58.57;100066.74;79624;1298;3011945;-62
2023/04/17 04:22:01;;;;;;;6.00;2.00;;;;;;;5.16;58.32;100064.95;78298;1292;3068508;-61
2023/04/17 04:24:37;;;;;;;5.10;2.10;;;;;;;5.18;58.17;100062.11;78181;1297;3051240;-60
2023/04/17 04:27:04;;;;;;;8.20;2.10;;;;;;;5.27;57.76;100060.80;79439;1297;3019218;-63
2023/04/17 04:29:32;;;;;;;6.10;1.50;;;;;;;5.28;57.00;100063.38;79460;1294;3012889;-62
2023/04/17 04:32:04;;;;;;;3.30;1.50;;;;;;;5.39;56.24;100056.98;78255;1297;3050754;-62
2023/04/17 04:34:35;;;;;;;8.20;1.60;;;;;;;5.49;55.70;100056.84;79427;1293;3012930;-60
2023/04/17 04:37:03;;;;;;;3.00;1.50;;;;;;;5.50;55.40;100054.38;78290;1296;3051344;-60
2023/04/17 04:39:41;;;;;;;11.70;2.20;;;;;;;5.55;55.23;100053.20;78229;1297;3069408;-63
2023/04/17 04:42:09;;;;;;;6.50;1.90;;;;;;;5.61;55.07;100053.01;79757;1293;3011627;-61
2023/04/17 04:45:10;;;;;;;3.50;1.80;;;;;;;5.64;54.43;100047.55;78096;1297;3056791;-61
2023/04/17 04:47:37;;;;;;;4.80;1.90;;;;;;;5.81;53.98;100046.84;79662;1294;3013040;-62
2023/04/17 04:50:05;;;;;;;8.00;2.20;;;;;;;5.80;53.90;100039.56;79462;1300;3013415;-61
2023/04/17 04:52:34;;;;;;;7.50;2.30;;;;;;;5.99;53.55;100044.02;78160;1297;3052827;-60
2023/04/17 04:55:05;;;;;;;4.00;2.00;;;;;;;6.04;52.93;100046.47;79538;1296;3013195;-62
2023/04/17 04:57:33;;;;;;;8.00;1.80;;;;;;;6.16;53.04;100043.83;78143;1296;3069171;-61
2023/04/17 05:00:05;;;;;;;8.40;1.70;;;;;;;6.25;52.82;100046.31;79474;1294;3013995;-61
2023/04/17 05:02:53;;;;;;;5.40;1.80;;;;;;;6.25;52.39;100045.61;78317;1294;3049023;-61
2023/04/17 05:05:20;;;;;;;4.60;1.60;;;;;;;6.37;51.89;100042.96;79461;1294;3011703;-60
2023/04/17 05:07:47;;;;;;;7.70;1.90;;;;;;;6.46;51.68;100043.86;79444;1292;3011626;-61
2023/04/17 05:10:15;;;;;;;6.60;1.90;;;;;;;6.42;50.67;100040.86;78267;1296;3052284;-63
2023/04/17 05:12:47;;;;;;;4.20;1.60;;;;;;;6.48;50.20;100039.09;79588;1293;3011460;-63
2023/04/17 05:15:16;;;;;;;4.50;1.80;;;;;;;6.61;49.74;100038.14;78052;1297;3051093;-59
2023/04/17 05:17:43;;;;;;;5.90;1.60;;;;;;;6.81;49.17;100037.27;79526;1294;3019313;-61
2023/04/17 05:20:11;;;;;;;6.00;1.80;;;;;;;6.96;48.53;100033.58;79551;1294;3011798;-62
2023/04/17 05:22:45;;;;;;;4.50;1.80;;;;;;;7.08;47.88;100034.87;78155;1297;3050953;-62
2023/04/17 05:28:15;;;;;;;5.50;1.80;;;;;;;7.28;46.19;100036.92;80096;1304;3013042;-62
2023/04/17 05:30:43;;;;;;;7.60;2.00;;;;;;;7.37;45.59;100037.95;78874;1307;3016090;-61
2023/04/17 05:33:22;;;;;;;4.00;1.70;;;;;;;7.40;45.16;100039.08;77749;1301;3052826;-62
2023/04/17 05:35:51;;;;;;;5.60;1.70;;;;;;;7.49;44.69;100042.38;79066;1305;3011369;-62
2023/04/17 05:38:20;;;;;;;5.50;1.60;;;;;;;7.53;43.73;100044.84;78471;1304;3013267;-62
2023/04/17 05:40:47;;;;;;;4.60;2.20;;;;;;;7.68;43.53;100046.02;77397;1305;3012930;-63
2023/04/17 05:43:13;;;;;;;6.70;2.00;;;;;;;7.72;43.82;100050.55;79082;1303;3011877;-62
2023/04/17 05:45:41;;;;;;;7.60;2.00;;;;;;;7.70;42.83;100044.73;78086;1298;3025846;-61
2023/04/17 05:48:09;;;;;;;6.80;1.70;;;;;;;7.77;42.38;100050.17;79420;1301;3013433;-56
2023/04/17 05:50:38;;;;;;;5.10;1.90;;;;;;;7.89;42.54;100042.90;79226;1301;3013213;-61
2023/04/17 05:53:07;;;;;;;4.00;1.50;;;;;;;7.91;41.97;100045.98;78036;1300;3069017;-62
2023/04/17 05:55:38;;;;;;;3.80;1.50;;;;;;;7.96;41.79;100043.84;79318;1301;3011647;-62
2023/04/17 05:58:07;;;;;;;4.10;2.10;;;;;;;8.09;41.96;100046.13;78042;1300;3056044;-60
2023/04/17 06:00:35;;;;;;;3.80;1.90;;;;;;;8.22;41.66;100048.55;79216;1298;3014383;-59
2023/04/17 06:03:02;;;;;;;3.70;1.80;;;;;;;8.34;41.37;100048.38;79186;1297;3012962;-62
2023/04/17 06:05:39;;;;;;;5.30;2.00;;;;;;;8.31;41.15;100047.11;78127;1301;3053406;-61
2023/04/17 06:08:06;;;;;;;4.70;1.80;;;;;;;8.33;40.59;100051.91;79375;1300;3013001;-59
2023/04/17 06:10:33;;;;;;;4.80;1.60;;;;;;;8.54;40.43;100052.30;79282;1301;3013393;-59
2023/04/17 06:13:02;;;;;;;5.50;1.60;;;;;;;8.70;40.25;100046.72;78221;1300;3055415;-60
2023/04/17 06:15:28;;;;;;;5.60;1.80;;;;;;;8.69;39.41;100045.02;79203;1297;3013471;-61
2023/04/17 06:17:55;;;;;;;3.60;1.70;;;;;;;8.72;38.63;100043.48;79162;1301;3011668;-61
2023/04/17 06:20:23;;;;;;;4.00;1.40;;;;;;;8.72;38.65;100043.48;77931;1300;3026457;-61
2023/04/17 06:22:49;;;;;;;3.60;1.60;;;;;;;8.86;38.48;100046.71;79475;1299;3013636;-60
2023/04/17 06:25:17;;;;;;;4.00;1.60;;;;;;;8.91;38.77;100047.72;79459;1301;3011792;-60
2023/04/17 06:27:46;;;;;;;3.60;1.70;;;;;;;9.09;38.95;100042.90;78326;1301;3056540;-60
2023/04/17 06:30:13;;;;;;;3.90;1.60;;;;;;;9.20;38.81;100041.88;81087;1296;3012513;-60
2023/04/17 06:32:49;;;;;;;5.80;1.80;;;;;;;9.19;37.68;100045.59;77954;1300;3050999;-58
2023/04/17 06:35:16;;;;;;;3.10;1.70;;;;;;;9.40;37.43;100042.38;79381;1300;3013580;-60
2023/04/17 06:37:48;;;;;;;8.60;1.90;;;;;;;9.48;37.61;100043.60;79240;1300;3068912;-60
2023/04/17 06:40:15;;;;;;;3.20;1.50;;;;;;;9.61;37.58;100045.21;79173;1298;3012991;-59
2023/04/17 06:42:41;;;;;;;4.10;1.80;;;;;;;9.63;37.02;100034.84;79500;1299;3011654;-60
2023/04/17 06:45:13;;;;;;;9.60;1.70;;;;;;;9.69;37.28;100028.05;78269;1295;3053016;-59
2023/04/17 06:47:41;;;;;;;3.80;1.40;;;;;;;9.76;36.90;100030.38;79195;1298;3013366;-60
2023/04/17 06:50:08;;;;;;;5.30;1.60;;;;;;;9.79;36.79;100026.71;79252;1301;3011790;-59
2023/04/17 06:52:36;;;;;;;5.00;1.60;;;;;;;9.87;37.00;100028.09;77973;1300;3069222;-59
2023/04/17 06:55:03;;;;;;;2.60;1.60;;;;;;;9.93;36.66;100020.80;79242;1299;3013737;-60
2023/04/17 06:57:32;;;;;;;4.50;1.50;;;;;;;9.87;36.95;100028.95;80450;1295;3011600;-59
2023/04/17 07:00:01;;;;;;;4.60;1.50;;;;;;;9.72;36.90;100030.73;78569;1298;3052573;-59
2023/04/17 07:02:28;;;;;;;2.60;1.10;;;;;;;9.67;36.39;100033.73;79360;1298;3013033;-58
2023/04/17 07:04:54;;;;;;;9.00;1.80;;;;;;;9.72;36.17;100029.83;79541;1299;3012911;-60
2023/04/17 07:07:22;;;;;;;6.70;1.60;;;;;;;9.87;36.04;100023.69;78320;1299;3069560;-60
2023/04/17 07:09:49;;;;;;;7.10;1.60;;;;;;;10.14;36.18;100024.84;79511;1301;3013335;-60
2023/04/17 07:12:16;;;;;;;8.90;1.50;;;;;;;10.24;35.97;100029.23;79562;1297;3011791;-59
2023/04/17 07:14:43;;;;;;;4.00;1.30;;;;;;;10.44;35.96;100019.84;78400;1294;3027195;-60
2023/04/17 07:17:10;;;;;;;5.60;1.40;;;;;;;10.48;35.38;100019.63;79533;1298;3013807;-59
2023/04/17 07:19:37;;;;;;;2.40;1.20;;;;;;;10.55;35.01;100024.00;79418;1297;3013131;-59
2023/04/17 07:22:04;;;;;;;2.10;1.10;;;;;;;10.67;34.83;100024.29;78155;1295;3028236;-59
2023/04/17 07:24:33;;;;;;;5.60;1.50;;;;;;;10.71;34.98;100023.55;79556;1295;3014303;-59
2023/04/17 07:27:03;;;;;;;7.30;1.50;;;;;;;10.69;34.98;100017.16;79099;1295;3011480;-56
2023/04/17 07:29:30;;;;;;;5.30;1.40;;;;;;;10.85;34.41;100011.25;79572;1296;3013106;-60
2023/04/17 07:31:57;;;;;;;4.10;1.50;;;;;;;10.90;34.85;100011.52;79365;1295;3011674;-61
2023/04/17 07:34:24;;;;;;;5.10;1.40;;;;;;;11.03;34.76;100009.42;78198;1297;3028214;-59
2023/04/17 07:36:52;;;;;;;3.90;1.40;;;;;;;11.21;34.24;100006.52;79568;1298;3013485;-59
2023/04/17 07:39:18;;;;;;;4.20;1.10;;;;;;;11.37;34.25;100003.71;79406;1297;3013967;-59
2023/04/17 07:41:47;;;;;;;2.60;1.40;;;;;;;11.44;34.32;99997.52;78125;1297;3028583;-60
2023/04/17 07:44:14;;;;;;;6.40;2.10;;;;;;;11.40;33.64;99998.09;79445;1295;3013072;-59
2023/04/17 07:46:41;;;;;;;3.20;1.60;;;;;;;11.34;33.47;100003.02;79355;1296;3011879;-59
2023/04/17 07:49:09;;;;;;;3.30;1.30;;;;;;;11.40;33.71;99987.76;78117;1297;3052370;-57
2023/04/17 07:51:37;;;;;;;2.90;1.30;;;;;;;11.43;33.41;99985.65;79341;1297;3012950;-59
2023/04/17 07:54:04;;;;;;;2.40;1.20;;;;;;;11.56;32.24;99975.48;79440;1295;3011654;-60
2023/04/17 07:56:33;;;;;;;5.50;1.40;;;;;;;11.55;31.83;99975.50;78140;1297;3056797;-60
2023/04/17 07:59:00;;;;;;;4.70;1.30;;;;;;;11.60;32.34;99970.30;79381;1295;3013724;-60
2023/04/17 08:01:26;;;;;;;7.10;2.30;;;;;;;11.80;32.01;99973.77;79391;1295;3013237;-61
2023/04/17 08:03:54;;;;;;;7.20;2.80;;;;;;;11.86;32.62;99961.27;78183;1297;3053268;-59
2023/04/17 08:06:21;;;;;;;4.90;1.90;;;;;;;11.94;32.11;99957.52;79526;1297;3013071;-61
2023/04/17 08:08:47;;;;;;;4.60;1.30;;;;;;;11.99;31.86;99958.81;79506;1297;3011683;-59
2023/04/17 08:11:15;;;;;;;4.40;1.40;;;;;;;11.96;31.68;99959.34;78172;1297;3028200;-61
2023/04/17 08:13:42;;;;;;;6.70;1.50;;;;;;;12.05;31.92;99953.38;79539;1296;3013004;-58
2023/04/17 08:16:09;;;;;;;4.00;1.20;;;;;;;12.20;31.75;99947.91;79439;1295;3011301;-58
2023/04/17 08:18:38;;;;;;;3.30;1.30;;;;;;;12.30;31.96;99939.95;78177;1298;3027608;-59
2023/04/17 08:21:05;;;;;;;2.30;1.20;;;;;;;12.40;31.50;99946.92;79424;1297;3013448;-59
2023/04/17 08:23:36;;;;;;;2.50;1.10;;;;;;;12.47;31.48;99942.63;78879;1294;3012789;-59
2023/04/17 08:26:03;;;;;;;2.50;1.30;;;;;;;12.54;32.11;99940.45;79231;1295;3013516;-59
2023/04/17 08:28:30;;;;;;;4.20;1.10;;;;;;;12.66;32.12;99940.24;79483;1295;3011920;-57
2023/04/17 08:30:57;;;;;;;3.90;1.20;;;;;;;12.78;31.46;99938.08;78204;1297;3053575;-58
2023/04/17 08:33:25;;;;;;;8.40;1.30;;;;;;;12.84;31.24;99935.29;79404;1307;3013080;-59
2023/04/17 08:35:52;;;;;;;3.70;1.50;;;;;;;12.90;30.78;99932.23;79386;1294;3011747;-61
2023/04/17 08:38:20;;;;;;;5.30;1.40;;;;;;;13.00;30.91;99934.07;78372;1301;3069692;-59
2023/04/17 08:40:50;;;;;;;8.10;1.20;;;;;;;13.05;30.56;99928.14;79401;1294;3013038;-59
2023/04/17 08:43:20;;;;;;;3.00;1.30;;;;;;;13.10;30.07;99926.63;78940;1297;3011869;-59
2023/04/17 08:45:52;;;;;;;2.40;1.10;;;;;;;13.24;30.59;99919.70;79460;1294;3013582;-58
2023/04/17 08:48:23;;;;;;;2.70;1.30;;;;;;;13.26;29.59;99915.17;78183;1297;3049678;-59
2023/04/17 08:50:51;;;;;;;3.70;1.50;;;;;;;13.34;29.50;99908.34;79318;1296;3011845;-59
2023/04/17 08:53:19;;;;;;;6.80;1.20;;;;;;;13.39;29.80;99906.30;78114;1300;3025989;-58
2023/04/17 08:55:46;;;;;;;5.40;1.30;;;;;;;13.58;29.65;99912.81;79421;1295;3014909;-60
2023/04/17 08:58:13;;;;;;;3.20;1.20;;;;;;;13.78;29.44;99903.58;79300;1295;3011893;-58
2023/04/17 09:00:42;;;;;;;3.90;1.40;;;;;;;13.90;28.76;99901.87;78189;1298;3049019;-58
2023/04/17 09:03:12;;;;;;;3.30;0.90;;;;;;;13.96;28.33;99895.86;79268;1294;3013899;-61
2023/04/17 09:05:42;;;;;;;5.60;1.20;;;;;;;13.90;27.07;99894.64;78130;1300;3052473;-59
2023/04/17 09:08:25;;;;;;;4.40;1.20;;;;;;;13.93;27.45;99885.82;79478;1294;3011579;-59
2023/04/17 09:10:53;;;;;;;4.30;1.30;;;;;;;13.99;27.54;99886.48;78069;1300;3069565;-59
2023/04/17 09:13:27;;;;;;;3.10;1.20;;;;;;;14.06;27.49;99877.39;79259;1295;3012993;-58
2023/04/17 09:16:08;;;;;;;3.20;1.20;;;;;;;14.09;27.37;99870.10;78121;1300;3047714;-57
2023/04/17 09:18:36;;;;;;;3.60;1.10;;;;;;;14.08;26.93;99871.40;78072;1294;3054212;-60
2023/04/17 09:21:04;;;;;;;3.80;1.20;;;;;;;14.26;26.75;99876.38;79210;1301;3016016;-59
2023/04/17 09:23:51;;;;;;;1.30;0.80;;;;;;;14.41;26.81;99871.58;79428;1299;3011808;-60
2023/04/17 09:26:24;;;;;;;3.90;1.10;;;;;;;14.46;26.83;99869.82;78114;1300;3068933;-59
2023/04/17 09:29:09;;;;;;;6.00;1.20;;;;;;;14.50;27.18;99867.30;79274;1300;3013256;-60
2023/04/17 09:31:39;;;;;;;9.20;1.40;;;;;;;14.63;26.87;99863.60;78186;1294;3056178;-59
2023/04/17 09:34:12;;;;;;;4.90;0.90;;;;;;;14.66;26.79;99860.05;79466;1295;3011718;-59
2023/04/17 09:36:41;;;;;;;20.80;1.40;;;;;;;14.69;26.80;99858.04;77984;1300;3048193;-59
2023/04/17 09:39:19;;;;;;;2.10;1.00;;;;;;;14.83;26.95;99857.19;79376;1300;3012977;-62
2023/04/17 09:41:47;;;;;;;4.00;1.00;;;;;;;14.90;26.52;99848.09;78129;1299;3052965;-60
2023/04/17 09:44:24;;;;;;;4.90;1.50;;;;;;;14.96;26.40;99844.82;79324;1300;3013202;-60
2023/04/17 09:46:52;;;;;;;5.80;1.10;;;;;;;15.08;25.84;99840.92;78205;1299;3056400;-60
2023/04/17 09:49:35;;;;;;;2.10;0.80;;;;;;;15.25;26.19;99833.69;79292;1300;3013560;-60
2023/04/17 09:52:03;;;;;;;3.10;1.10;;;;;;;15.48;25.85;99831.84;78144;1298;3049967;-60
2023/04/17 09:54:30;;;;;;;4.90;1.30;;;;;;;15.44;25.72;99841.46;79499;1300;3018422;-59
2023/04/17 09:56:57;;;;;;;2.00;0.90;;;;;;;15.48;25.17;99837.81;79296;1298;3011607;-59
2023/04/17 09:59:25;;;;;;;2.50;0.90;;;;;;;15.62;25.05;99837.98;78034;1295;3050994;-60
2023/04/17 10:01:53;;;;;;;3.60;1.00;;;;;;;15.63;24.69;99826.27;79252;1295;3018728;-61
2023/04/17 10:04:20;;;;;;;2.50;1.00;;;;;;;15.56;24.49;99827.10;79382;1295;3011943;-60
2023/04/17 10:06:48;;;;;;;2.30;1.00;;;;;;;15.65;24.76;99829.68;78206;1300;3050078;-61
2023/04/17 10:09:15;;;;;;;3.60;1.50;;;;;;;15.74;24.88;99816.43;79593;1294;3012961;-60
2023/04/17 10:11:43;;;;;;;3.50;1.00;;;;;;;15.61;24.08;99817.94;79344;1295;3012901;-61
2023/04/17 10:14:21;;;;;;;3.30;1.20;;;;;;;15.59;23.97;99813.53;78186;1300;3051257;-60
2023/04/17 10:16:49;;;;;;;4.20;0.90;;;;;;;15.73;24.21;99823.91;78178;1298;3057471;-60
2023/04/17 10:19:29;;;;;;;2.90;0.80;;;;;;;15.67;24.27;99820.84;79484;1295;3019180;-60
2023/04/17 10:22:19;;;;;;;2.40;1.00;;;;;;;15.66;23.93;99811.27;78186;1295;3049998;-58
2023/04/17 10:24:50;;;;;;;5.90;0.90;;;;;;;15.89;23.44;99812.14;78136;1298;3052319;-60
2023/04/17 10:27:26;;;;;;;5.70;1.00;;;;;;;16.12;23.33;99814.95;79440;1298;3013149;-60
2023/04/17 10:29:55;;;;;;;6.80;1.30;;;;;;;16.32;23.45;99814.58;78046;1297;3071698;-59
2023/04/17 10:32:24;;;;;;;2.10;1.00;;;;;;;16.37;23.30;99809.11;79265;1295;3013119;-59
2023/04/17 10:34:53;;;;;;;6.70;1.20;;;;;;;16.53;23.61;99809.48;78019;1299;3049445;-60
2023/04/17 10:37:21;;;;;;;2.30;0.70;;;;;;;16.68;23.69;99819.89;79223;1298;3013224;-59
2023/04/17 10:40:01;;;;;;;3.40;0.80;;;;;;;16.69;23.09;99811.89;79022;1300;3011482;-60
2023/04/17 10:42:29;;;;;;;4.30;0.90;;;;;;;16.76;22.64;99808.98;77999;1299;3052097;-59
2023/04/17 10:44:58;;;;;;;4.30;1.10;;;;;;;16.77;23.20;99803.44;79272;1299;3013539;-59
2023/04/17 10:47:34;;;;;;;2.10;0.80;;;;;;;16.96;22.97;99804.59;79361;1295;3013999;-60
2023/04/17 10:50:03;;;;;;;4.80;1.00;;;;;;;17.06;23.09;99803.63;77979;1299;3056443;-58
2023/04/17 10:52:34;;;;;;;7.30;1.10;;;;;;;17.16;23.17;99808.65;79296;1294;3013834;-60
2023/04/17 10:55:08;;;;;;;2.90;0.90;;;;;;;17.24;22.99;99805.11;78030;1298;3049367;-60
2023/04/17 10:57:54;;;;;;;8.80;1.10;;;;;;;17.42;23.16;99806.48;78678;1300;3013151;-59
2023/04/17 11:00:36;;;;;;;3.70;0.80;;;;;;;17.54;22.51;99802.08;78128;1299;3052884;-57
2023/04/17 11:03:05;;;;;;;1.80;1.00;;;;;;;17.60;21.84;99793.98;77995;1300;3051654;-59
2023/04/17 11:05:32;;;;;;;2.60;0.80;;;;;;;17.50;21.61;99794.99;79309;1299;3013027;-58
2023/04/17 11:07:58;;;;;;;3.40;1.20;;;;;;;17.70;21.92;99789.98;79198;1295;3011724;-59
2023/04/17 11:10:26;;;;;;;10.90;0.90;;;;;;;17.73;21.49;99783.67;78099;1298;3048810;-63
2023/04/17 11:12:54;;;;;;;6.00;1.10;;;;;;;17.65;21.10;99785.71;79054;1295;3013636;-62
2023/04/17 11:15:39;;;;;;;2.10;0.70;;;;;;;17.60;21.14;99786.14;79081;1295;3013068;-62
2023/04/17 11:18:07;;;;;;;9.10;0.90;;;;;;;17.64;20.89;99785.48;77984;1301;3052699;-60
2023/04/17 11:20:35;;;;;;;4.70;1.20;;;;;;;17.69;20.93;99783.61;79295;1295;3012917;-64
2023/04/17 11:23:02;;;;;;;3.30;0.90;;;;;;;17.72;20.99;99783.21;79168;1295;3012005;-61
2023/04/17 11:25:32;;;;;;;4.50;0.90;;;;;;;17.87;20.47;99781.08;78091;1294;3048260;-62
2023/04/17 11:28:00;;;;;;;6.20;0.90;;;;;;;18.09;21.24;99770.51;79471;1295;3011655;-61